Time;durP1;ratioP1;P1;durP2;ratioP2;P2;SDS_P1;SDS_P2;PMS_P1;PMS_P2;Temp;Humidity;BMP_temperature;BMP_pressure;BME280_temperature;BME280_humidity;BME280_pressure;Samples;Min_cycle;Max_cycle;Signal;HPM_P1;HPM_P2
2022/03/05 02:53:33;;;;;;;15.95;6.95;;;25.80;99.90;;;;;;4989936;28;20058;-90
2022/03/05 02:56:00;;;;;;;16.35;6.93;;;25.60;99.90;;;;;;4990399;28;20056;-83
2022/03/05 02:58:31;;;;;;;13.07;7.05;;;25.60;99.90;;;;;;5010387;28;20534;-83
2022/03/05 03:00:58;;;;;;;15.82;6.57;;;25.60;99.90;;;;;;5005564;28;20491;-84
2022/03/05 03:03:25;;;;;;;11.25;6.07;;;25.60;99.90;;;;;;5008527;28;20480;-84
2022/03/05 03:05:53;;;;;;;13.80;6.03;;;25.60;99.90;;;;;;5008429;28;20038;-83
2022/03/05 03:08:20;;;;;;;14.93;6.15;;;25.70;99.90;;;;;;5012388;28;20030;-81
2022/03/05 03:10:47;;;;;;;10.15;5.88;;;25.70;99.90;;;;;;5014099;28;20038;-80
2022/03/05 03:13:15;;;;;;;10.20;4.82;;;25.80;99.90;;;;;;5012993;28;20049;-81
2022/03/05 03:15:42;;;;;;;13.90;5.28;;;25.80;99.90;;;;;;5013265;28;20038;-81
2022/03/05 03:18:09;;;;;;;12.27;4.72;;;26.00;99.90;;;;;;5013815;28;20476;-80
2022/03/05 03:20:37;;;;;;;12.10;4.75;;;26.00;99.90;;;;;;5013310;28;20030;-80
2022/03/05 03:23:04;;;;;;;16.88;4.68;;;26.00;99.90;;;;;;5013887;28;20072;-80
2022/03/05 03:25:31;;;;;;;10.07;4.30;;;26.00;99.90;;;;;;5017160;28;20025;-80
2022/03/05 03:27:58;;;;;;;10.80;5.13;;;26.10;99.90;;;;;;5014144;28;20476;-80
2022/03/05 03:30:26;;;;;;;10.45;4.63;;;25.90;99.90;;;;;;5008472;28;20026;-80
2022/03/05 03:32:53;;;;;;;9.88;3.83;;;25.70;99.90;;;;;;5014246;28;20045;-79
2022/03/05 03:35:20;;;;;;;11.38;3.90;;;25.70;99.90;;;;;;5012518;28;20121;-80
2022/03/05 03:37:48;;;;;;;18.27;4.90;;;25.60;99.90;;;;;;5014239;28;20034;-79
2022/03/05 03:40:16;;;;;;;10.98;4.35;;;25.50;99.90;;;;;;5012621;28;20026;-79
2022/03/05 03:42:46;;;;;;;8.18;3.70;;;25.40;99.90;;;;;;5012276;28;20042;-79
2022/03/05 03:45:14;;;;;;;9.77;3.65;;;25.40;99.90;;;;;;4997005;28;20038;-79
2022/03/05 03:47:44;;;;;;;10.30;3.85;;;25.40;99.90;;;;;;4993328;28;20572;-79
2022/03/05 03:50:14;;;;;;;13.10;3.13;;;25.30;99.90;;;;;;5009894;28;20034;-80
2022/03/05 03:52:41;;;;;;;12.30;4.30;;;25.40;99.90;;;;;;5013348;28;20044;-79
2022/03/05 03:55:13;;;;;;;10.90;3.88;;;25.50;99.90;;;;;;5027296;28;20049;-79
2022/03/05 03:57:40;;;;;;;12.70;3.75;;;25.50;99.90;;;;;;5034565;28;20025;-79
2022/03/05 04:00:10;;;;;;;8.95;3.97;;;25.50;99.90;;;;;;5034082;28;20048;-79
2022/03/05 04:02:37;;;;;;;11.55;3.15;;;25.40;99.90;;;;;;5016572;28;20033;-79
2022/03/05 04:05:05;;;;;;;11.55;3.13;;;25.40;99.90;;;;;;5034028;28;20038;-79
2022/03/05 04:10:18;;;;;;;11.57;2.47;;;25.40;99.90;;;;;;5031001;28;20094;-81
2022/03/05 04:12:49;;;;;;;15.70;3.35;;;25.40;99.90;;;;;;5033849;28;20400;-80
2022/03/05 04:15:17;;;;;;;8.52;2.92;;;25.50;99.90;;;;;;5015793;28;20037;-80
2022/03/05 04:17:44;;;;;;;7.03;1.90;;;25.40;99.90;;;;;;5012811;28;20038;-80
2022/03/05 04:20:12;;;;;;;9.65;1.88;;;25.50;99.90;;;;;;5029420;28;20037;-80
2022/03/05 04:22:39;;;;;;;12.93;2.63;;;25.60;99.90;;;;;;5037869;28;20061;-80
2022/03/05 04:25:07;;;;;;;7.28;1.67;;;25.70;99.90;;;;;;5033653;28;20132;-80
2022/03/05 04:27:34;;;;;;;8.45;2.65;;;25.90;99.90;;;;;;5033928;28;20036;-80
2022/03/05 04:30:02;;;;;;;9.77;1.70;;;25.90;99.90;;;;;;5033831;28;20411;-80
2022/03/05 04:32:29;;;;;;;8.35;1.73;;;25.90;99.90;;;;;;5034250;28;20265;-80
2022/03/05 04:34:57;;;;;;;7.13;1.52;;;26.00;99.90;;;;;;5031589;28;20033;-80
2022/03/05 04:37:24;;;;;;;9.68;1.40;;;25.90;99.90;;;;;;5033846;28;20071;-80
2022/03/05 04:39:51;;;;;;;5.75;1.00;;;25.90;99.90;;;;;;5033540;28;20117;-80
2022/03/05 04:42:18;;;;;;;8.45;1.23;;;25.90;99.90;;;;;;5031990;28;20030;-81
2022/03/05 04:44:46;;;;;;;9.10;1.83;;;26.00;99.90;;;;;;5031785;28;20051;-80
2022/03/05 04:47:13;;;;;;;6.95;1.27;;;26.00;99.90;;;;;;5033028;28;20084;-81
2022/03/05 04:49:44;;;;;;;6.82;1.67;;;25.90;99.90;;;;;;5032411;28;20041;-91
2022/03/05 04:52:40;;;;;;;9.48;1.77;;;25.80;99.90;;;;;;5015805;28;20487;-91
2022/03/05 04:55:11;;;;;;;5.10;1.02;;;25.80;99.90;;;;;;5020303;28;20061;-91
2022/03/05 04:57:52;;;;;;;7.65;1.73;;;25.90;99.90;;;;;;5014058;28;20121;-92
2022/03/05 05:00:20;;;;;;;7.40;1.58;;;25.90;99.90;;;;;;5032243;28;20080;-91
2022/03/05 05:02:47;;;;;;;7.85;1.50;;;25.90;99.90;;;;;;5036486;28;20026;-91
2022/03/05 05:05:15;;;;;;;6.53;1.42;;;25.90;99.90;;;;;;5016071;28;20041;-91
2022/03/05 05:08:05;;;;;;;4.07;0.75;;;25.90;99.90;;;;;;5032143;28;20068;-90
2022/03/05 05:11:01;;;;;;;6.75;1.33;;;26.00;99.90;;;;;;5018486;28;20043;-92
2022/03/05 05:13:43;;;;;;;5.78;0.93;;;25.90;99.90;;;;;;5013032;28;20041;-91
2022/03/05 05:16:13;;;;;;;4.38;1.52;;;25.80;99.90;;;;;;5030964;28;20061;-91
2022/03/05 05:19:24;;;;;;;8.20;1.27;;;25.50;99.90;;;;;;5012683;28;20065;-91
2022/03/05 05:21:31;;;;;;;6.22;1.30;;;25.40;99.90;;;;;;5026270;28;20375;-91
2022/03/05 05:24:02;;;;;;;5.75;1.08;;;25.30;99.90;;;;;;5014435;28;20508;-91
2022/03/05 05:26:29;;;;;;;5.60;1.10;;;25.30;99.90;;;;;;5015423;28;20075;-92
2022/03/05 05:29:14;;;;;;;6.13;1.58;;;25.30;99.90;;;;;;5013748;28;20037;-92
2022/03/05 05:31:42;;;;;;;6.32;1.10;;;25.30;99.90;;;;;;5014552;28;20037;-92
2022/03/05 05:34:09;;;;;;;8.35;1.60;;;25.20;99.90;;;;;;5032666;28;20041;-92
2022/03/05 05:36:40;;;;;;;6.60;1.10;;;25.30;99.90;;;;;;5015798;28;20044;-92
2022/03/05 05:39:09;;;;;;;6.50;1.30;;;25.30;99.90;;;;;;5013222;28;20064;-91
2022/03/05 05:41:37;;;;;;;8.75;1.55;;;25.40;99.90;;;;;;5013012;28;20033;-88
2022/03/05 05:44:06;;;;;;;3.17;0.57;;;25.50;99.90;;;;;;5014530;28;20105;-88
2022/03/05 05:46:33;;;;;;;3.85;1.25;;;25.60;99.90;;;;;;5032214;28;20037;-91
2022/03/05 05:49:01;;;;;;;3.75;0.65;;;25.60;99.90;;;;;;5014828;28;20033;-90
2022/03/05 05:51:30;;;;;;;6.30;1.60;;;25.70;99.90;;;;;;5010943;28;20431;-89
2022/03/05 05:53:57;;;;;;;6.05;1.05;;;25.80;99.90;;;;;;5027668;28;20046;-90
2022/03/05 05:56:25;;;;;;;4.65;1.23;;;25.90;99.90;;;;;;5013997;28;20063;-89
2022/03/05 05:58:53;;;;;;;6.20;1.13;;;25.90;99.90;;;;;;5032246;28;20033;-91
2022/03/05 06:01:22;;;;;;;6.00;0.70;;;26.00;99.90;;;;;;5031500;28;20116;-89
2022/03/05 06:03:50;;;;;;;4.60;1.00;;;26.00;99.90;;;;;;5032751;28;20444;-90
2022/03/05 06:06:17;;;;;;;4.82;1.20;;;26.10;99.90;;;;;;5015579;28;20954;-89
2022/03/05 06:08:45;;;;;;;4.88;0.85;;;26.10;99.90;;;;;;5012906;28;20561;-89
2022/03/05 06:11:12;;;;;;;6.40;1.10;;;26.10;99.90;;;;;;4994876;28;20030;-91
2022/03/05 06:14:10;;;;;;;6.75;1.17;;;26.00;99.90;;;;;;5006639;28;20060;-92
2022/03/05 06:16:40;;;;;;;4.43;1.17;;;26.00;99.90;;;;;;5012066;28;20107;-90
2022/03/05 06:19:17;;;;;;;4.10;1.27;;;25.70;99.90;;;;;;5025236;28;20041;-92
2022/03/05 06:21:47;;;;;;;5.53;1.05;;;25.40;99.90;;;;;;5015019;28;20507;-91
2022/03/05 06:24:15;;;;;;;4.47;1.35;;;25.30;99.90;;;;;;5030367;28;20364;-93
2022/03/05 06:26:48;;;;;;;4.35;1.00;;;25.10;99.90;;;;;;5015266;28;20037;-93
2022/03/05 06:29:24;;;;;;;5.50;1.40;;;25.00;99.90;;;;;;5012421;28;20133;-92
2022/03/05 06:31:58;;;;;;;4.65;0.85;;;24.90;99.90;;;;;;4995946;28;20068;-92
2022/03/05 06:34:31;;;;;;;4.15;1.00;;;24.90;99.90;;;;;;5008086;28;20381;-92
2022/03/05 06:37:00;;;;;;;4.68;1.15;;;24.90;99.90;;;;;;5013406;28;20396;-91
2022/03/05 06:39:31;;;;;;;8.00;1.17;;;24.80;99.90;;;;;;5014702;28;20095;-92
2022/03/05 06:42:10;;;;;;;7.35;1.05;;;24.80;99.90;;;;;;5012754;28;20030;-92
2022/03/05 06:44:47;;;;;;;4.43;1.02;;;24.80;99.90;;;;;;5005049;28;20788;-93
2022/03/05 06:47:24;;;;;;;7.93;1.35;;;24.70;99.90;;;;;;5027546;28;20525;-93
2022/03/05 06:49:51;;;;;;;4.07;1.20;;;24.80;99.90;;;;;;5018345;28;20148;-92
2022/03/05 06:52:18;;;;;;;8.85;1.92;;;24.70;99.90;;;;;;5018049;28;20052;-93
2022/03/05 06:54:49;;;;;;;6.75;1.20;;;24.70;99.90;;;;;;5017108;28;20338;-92
2022/03/05 06:57:38;;;;;;;7.68;1.70;;;24.80;99.90;;;;;;5018591;28;20029;-92
2022/03/05 07:00:22;;;;;;;5.47;1.13;;;24.80;99.90;;;;;;5017272;28;20033;-92
2022/03/05 07:02:51;;;;;;;;;;;24.70;99.90;;;;;;5016021;28;20052;-91
2022/03/05 07:05:19;;;;;;;6.07;0.95;;;24.70;99.90;;;;;;5014289;28;19910;-91
2022/03/05 07:07:58;;;;;;;8.55;1.23;;;24.70;99.90;;;;;;5010441;28;20037;-90
2022/03/05 07:10:35;;;;;;;6.45;1.13;;;24.60;99.90;;;;;;5018045;28;20488;-89
2022/03/05 07:13:02;;;;;;;6.20;1.15;;;24.60;99.90;;;;;;5017391;28;20045;-93
2022/03/05 07:15:48;;;;;;;6.20;1.23;;;24.60;99.90;;;;;;5016745;28;20038;-90
2022/03/05 07:18:24;;;;;;;5.63;1.35;;;24.50;99.90;;;;;;5032843;28;20027;-86
2022/03/05 07:20:57;;;;;;;11.98;1.38;;;24.50;99.90;;;;;;5034235;28;20039;-86
2022/03/05 07:23:30;;;;;;;6.97;1.35;;;24.50;99.90;;;;;;5034366;28;20487;-89
2022/03/05 07:26:18;;;;;;;8.25;1.95;;;24.50;99.90;;;;;;5016674;28;20037;-88
2022/03/05 07:28:55;;;;;;;10.40;2.00;;;24.40;99.90;;;;;;4996685;28;20033;-89
2022/03/05 07:31:23;;;;;;;6.28;1.63;;;24.40;99.90;;;;;;5033447;28;20037;-90
2022/03/05 07:33:50;;;;;;;6.60;1.52;;;24.40;99.90;;;;;;5028916;28;20049;-91
2022/03/05 07:36:19;;;;;;;12.40;1.58;;;24.30;99.90;;;;;;5016999;28;20427;-91
2022/03/05 07:38:46;;;;;;;11.02;1.90;;;24.30;99.90;;;;;;5017379;28;20038;-91
2022/03/05 07:41:14;;;;;;;7.45;1.42;;;24.30;99.90;;;;;;5034726;28;20057;-91
2022/03/05 07:43:41;;;;;;;8.18;1.67;;;24.30;99.90;;;;;;5031310;28;20033;-91
2022/03/05 07:46:09;;;;;;;6.15;1.48;;;24.30;99.90;;;;;;5034725;28;20028;-92
2022/03/05 07:48:36;;;;;;;7.72;1.23;;;24.20;99.90;;;;;;5035393;28;20041;-92
2022/03/05 07:51:04;;;;;;;6.78;2.25;;;24.20;99.90;;;;;;5017618;28;20457;-92
2022/03/05 07:53:34;;;;;;;7.68;1.98;;;24.20;99.90;;;;;;5013615;28;20045;-92
2022/03/05 07:57:07;;;;;;;6.70;1.27;;;24.20;99.90;;;;;;5012856;28;20044;-91
2022/03/05 07:59:03;;;;;;;9.43;1.70;;;24.20;99.90;;;;;;4997374;28;20041;-91
2022/03/05 08:01:44;;;;;;;12.00;2.03;;;24.10;99.90;;;;;;4996970;28;20030;-91
2022/03/05 08:04:20;;;;;;;9.63;1.60;;;24.10;99.90;;;;;;4996708;28;20061;-91
2022/03/05 08:07:07;;;;;;;8.23;2.00;;;24.10;99.90;;;;;;4996761;28;20137;-91
2022/03/05 08:59:50;;;;;;;9.38;1.45;;;23.90;99.90;;;;;;5021837;28;20051;-83
2022/03/05 09:02:18;;;;;;;6.05;1.67;;;23.90;99.90;;;;;;5049305;28;20040;-91
2022/03/05 09:04:45;;;;;;;8.02;1.50;;;23.90;99.90;;;;;;5034918;28;20037;-92
2022/03/05 09:09:40;;;;;;;9.85;2.05;;;23.80;99.90;;;;;;5026436;28;20053;-68
2022/03/05 09:12:07;;;;;;;14.05;1.92;;;23.80;99.90;;;;;;5025136;28;20034;-66
2022/03/05 09:14:35;;;;;;;9.95;2.67;;;23.80;99.90;;;;;;5028553;28;20045;-69
2022/03/05 09:17:02;;;;;;;10.43;1.90;;;23.80;99.90;;;;;;5032352;28;20435;-66
2022/03/05 09:19:29;;;;;;;9.10;2.70;;;23.80;99.90;;;;;;5027103;28;20120;-66
2022/03/05 09:21:57;;;;;;;9.85;2.85;;;23.80;99.90;;;;;;5023491;28;20033;-67
2022/03/05 09:24:24;;;;;;;10.00;2.45;;;23.80;99.90;;;;;;5031670;28;20065;-67
2022/03/05 09:26:51;;;;;;;9.38;1.90;;;23.80;99.90;;;;;;5031208;28;20034;-66
2022/03/05 09:29:19;;;;;;;10.85;3.17;;;23.80;99.90;;;;;;5032096;28;20500;-66
2022/03/05 09:31:46;;;;;;;14.10;2.92;;;23.80;99.90;;;;;;5022635;28;20060;-66
2022/03/05 09:34:14;;;;;;;11.07;3.25;;;23.80;99.90;;;;;;5013808;28;20041;-67
2022/03/05 09:36:41;;;;;;;12.68;2.67;;;23.80;99.90;;;;;;5031389;28;20452;-66
2022/03/05 09:39:09;;;;;;;11.43;2.40;;;23.80;99.90;;;;;;5028402;28;20544;-67
2022/03/05 09:41:39;;;;;;;12.50;2.30;;;23.80;99.90;;;;;;5031961;28;20021;-66
2022/03/05 09:44:07;;;;;;;11.18;2.55;;;23.80;99.90;;;;;;5030866;28;20036;-66
2022/03/05 09:46:36;;;;;;;12.50;2.60;;;23.80;99.90;;;;;;5030678;28;20076;-67
2022/03/05 09:49:04;;;;;;;15.15;3.03;;;23.80;99.90;;;;;;5031692;28;20029;-67
2022/03/05 09:51:32;;;;;;;10.50;2.42;;;23.80;99.90;;;;;;5031578;28;20503;-67
2022/03/05 09:54:00;;;;;;;15.30;2.72;;;23.80;99.90;;;;;;5029995;28;20438;-67
2022/03/05 09:56:28;;;;;;;13.18;2.70;;;23.80;99.90;;;;;;5030841;28;20496;-67
2022/03/05 09:58:56;;;;;;;13.00;3.67;;;23.80;99.90;;;;;;5032058;28;20061;-67
2022/03/05 10:01:24;;;;;;;14.23;3.45;;;23.70;99.90;;;;;;5027894;28;20160;-67
2022/03/05 10:03:55;;;;;;;11.27;2.33;;;23.80;99.90;;;;;;5030685;28;20052;-68
2022/03/05 10:06:26;;;;;;;14.00;3.00;;;23.80;99.90;;;;;;5029693;28;20076;-67
2022/03/05 10:08:55;;;;;;;11.98;3.15;;;23.70;99.90;;;;;;5031026;28;20045;-68
2022/03/05 10:11:37;;;;;;;13.93;2.90;;;23.80;99.90;;;;;;5029266;28;20092;-68
2022/03/05 10:14:16;;;;;;;11.95;2.20;;;23.70;99.90;;;;;;5026082;28;20073;-67
2022/03/05 10:16:43;;;;;;;12.32;3.17;;;23.70;99.90;;;;;;5025270;28;20365;-67
2022/03/05 10:19:22;;;;;;;20.20;4.28;;;23.70;99.90;;;;;;5031859;28;20484;-67
2022/03/05 10:22:05;;;;;;;10.95;2.22;;;23.70;99.90;;;;;;5030954;28;20037;-67
2022/03/05 10:24:40;;;;;;;21.85;3.58;;;23.70;99.90;;;;;;5030461;28;20030;-67
2022/03/05 10:27:09;;;;;;;14.35;3.38;;;23.70;99.90;;;;;;5031673;28;20543;-67
2022/03/05 10:29:39;;;;;;;17.20;3.00;;;23.70;99.90;;;;;;5029226;28;20033;-67
2022/03/05 10:32:09;;;;;;;12.25;2.67;;;23.70;99.90;;;;;;5027676;28;20041;-67
2022/03/05 10:34:44;;;;;;;11.80;2.60;;;23.60;99.90;;;;;;5030234;28;20041;-67
2022/03/05 10:37:12;;;;;;;13.98;2.05;;;23.60;99.90;;;;;;5013660;28;20053;-67
2022/03/05 10:39:39;;;;;;;19.45;3.00;;;23.70;99.90;;;;;;5030853;28;20041;-67
2022/03/05 10:42:20;;;;;;;14.13;2.88;;;23.60;99.90;;;;;;5029066;28;20056;-67
2022/03/05 10:45:07;;;;;;;19.40;3.53;;;23.60;99.90;;;;;;5030929;28;20042;-67
2022/03/05 10:47:39;;;;;;;20.02;3.33;;;23.70;99.90;;;;;;5019384;28;20029;-67
2022/03/05 10:50:20;;;;;;;13.32;3.10;;;23.60;99.90;;;;;;5030668;28;20021;-67
2022/03/05 10:53:01;;;;;;;13.15;3.50;;;23.70;99.90;;;;;;5025643;28;20030;-67
2022/03/05 10:55:36;;;;;;;12.75;3.38;;;23.60;99.90;;;;;;5028383;28;20504;-67
2022/03/05 10:58:17;;;;;;;13.05;2.42;;;23.60;99.90;;;;;;5029565;28;20523;-67
2022/03/05 11:00:49;;;;;;;12.07;2.50;;;23.60;99.90;;;;;;5031022;28;20041;-67
2022/03/05 11:03:18;;;;;;;20.73;3.45;;;23.60;99.90;;;;;;5030503;28;20037;-67
2022/03/05 11:05:46;;;;;;;14.23;3.03;;;23.60;99.90;;;;;;5029654;28;20057;-67
2022/03/05 11:08:14;;;;;;;13.98;3.28;;;23.60;99.90;;;;;;5028757;28;20081;-67
2022/03/05 11:10:42;;;;;;;11.93;2.90;;;23.60;99.90;;;;;;5023442;28;20048;-68
2022/03/05 11:13:09;;;;;;;12.00;2.80;;;23.60;99.90;;;;;;5024303;28;20045;-68
2022/03/05 11:15:36;;;;;;;15.40;2.58;;;23.60;99.90;;;;;;5027804;28;20029;-68
2022/03/05 11:18:05;;;;;;;12.13;2.67;;;23.60;99.90;;;;;;5024025;28;20608;-68
2022/03/05 11:20:34;;;;;;;15.43;2.30;;;23.60;99.90;;;;;;5028544;28;20536;-68
2022/03/05 11:23:02;;;;;;;16.55;2.97;;;23.60;99.90;;;;;;5030700;28;20044;-68
2022/03/05 11:25:31;;;;;;;18.90;4.25;;;23.60;99.90;;;;;;5027575;28;20046;-67
2022/03/05 11:28:01;;;;;;;15.82;2.50;;;23.60;99.90;;;;;;5029959;28;20125;-67
2022/03/05 11:30:38;;;;;;;10.07;2.55;;;23.60;99.90;;;;;;5025947;28;20022;-68
2022/03/05 11:33:11;;;;;;;16.38;2.80;;;23.60;99.90;;;;;;5033271;28;20389;-67
2022/03/05 11:35:43;;;;;;;13.15;2.45;;;23.50;99.90;;;;;;5029330;28;20045;-68
2022/03/05 11:38:36;;;;;;;17.05;2.55;;;23.50;99.90;;;;;;5028687;28;20036;-68
2022/03/05 11:41:27;;;;;;;13.25;2.13;;;23.60;99.90;;;;;;5027719;28;20030;-67
2022/03/05 11:44:11;;;;;;;12.05;2.17;;;23.60;99.90;;;;;;5021752;28;20036;-68
2022/03/05 11:46:38;;;;;;;15.50;2.53;;;23.60;99.90;;;;;;5032912;28;20108;-68
2022/03/05 11:49:07;;;;;;;15.75;4.00;;;23.60;99.90;;;;;;5019615;28;20034;-68
2022/03/05 11:51:51;;;;;;;5.95;1.08;;;23.60;99.90;;;;;;5026048;28;20040;-67
2022/03/05 11:54:18;;;;;;;2.28;0.32;;;23.10;99.90;;;;;;5033497;28;20037;-67
2022/03/05 11:57:16;;;;;;;1.85;0.40;;;22.80;99.90;;;;;;5032019;28;20168;-67
2022/03/05 11:59:54;;;;;;;1.63;0.40;;;22.50;99.90;;;;;;5027528;28;20038;-67
2022/03/05 12:02:46;;;;;;;1.38;0.30;;;22.40;99.90;;;;;;5033568;28;20030;-67
2022/03/05 12:05:53;;;;;;;0.95;0.30;;;22.30;99.90;;;;;;5008544;28;20050;-67
2022/03/05 12:08:28;;;;;;;1.35;0.30;;;22.00;99.90;;;;;;4918214;29;20048;-67
2022/03/05 12:11:18;;;;;;;1.58;0.30;;;21.90;99.90;;;;;;4929858;29;20491;-67
2022/03/05 12:13:52;;;;;;;2.33;0.57;;;21.80;99.90;;;;;;4976662;28;20517;-67
2022/03/05 12:16:30;;;;;;;0.52;0.20;;;21.70;99.90;;;;;;5006739;28;20030;-67
2022/03/05 12:18:59;;;;;;;0.80;0.32;;;21.70;99.90;;;;;;5003616;28;20038;-67
2022/03/05 12:21:31;;;;;;;2.20;0.40;;;21.40;99.90;;;;;;5012623;28;20046;-67
2022/03/05 12:24:09;;;;;;;3.08;0.40;;;21.20;99.90;;;;;;5014622;28;20030;-67
2022/03/05 12:26:43;;;;;;;1.27;0.50;;;21.20;99.90;;;;;;5010478;28;20092;-67
2022/03/05 12:29:12;;;;;;;2.60;0.60;;;21.00;99.90;;;;;;5012572;28;20034;-67
2022/03/05 12:31:43;;;;;;;1.88;0.90;;;20.80;99.90;;;;;;4984108;28;20038;-67
2022/03/05 12:34:11;;;;;;;1.08;0.50;;;20.80;99.90;;;;;;5013123;28;20042;-67
2022/03/05 12:36:43;;;;;;;3.45;0.80;;;20.80;99.90;;;;;;5003362;28;20039;-67
2022/03/05 12:39:11;;;;;;;1.15;0.40;;;20.70;99.90;;;;;;4994400;28;20045;-67
2022/03/05 12:41:41;;;;;;;1.63;0.70;;;20.70;99.90;;;;;;4998478;28;20041;-67
2022/03/05 12:44:14;;;;;;;2.63;0.95;;;20.50;99.90;;;;;;5013810;28;20030;-67
2022/03/05 12:46:42;;;;;;;1.97;0.40;;;20.50;99.90;;;;;;5006770;28;20065;-67
2022/03/05 12:49:10;;;;;;;2.58;0.80;;;20.50;99.90;;;;;;5007958;28;20030;-67
2022/03/05 12:51:37;;;;;;;1.42;0.50;;;20.60;99.90;;;;;;5012860;28;20112;-67
2022/03/05 12:54:05;;;;;;;1.73;0.50;;;20.60;99.90;;;;;;5011278;28;20440;-67
2022/03/05 12:56:34;;;;;;;2.67;0.73;;;20.50;99.90;;;;;;4991190;28;20053;-67
2022/03/05 12:59:03;;;;;;;1.73;0.60;;;20.50;99.90;;;;;;5013587;28;20044;-67
2022/03/05 13:01:30;;;;;;;2.88;0.55;;;20.50;99.90;;;;;;5004727;28;20374;-67
2022/03/05 13:03:59;;;;;;;3.67;0.80;;;20.50;99.90;;;;;;5008665;28;20041;-67
2022/03/05 13:06:27;;;;;;;2.28;0.50;;;20.50;99.90;;;;;;5004150;28;20048;-67
2022/03/05 13:08:55;;;;;;;1.75;0.60;;;20.60;99.90;;;;;;5025894;28;20579;-67
2022/03/05 13:11:25;;;;;;;2.92;0.77;;;20.70;99.90;;;;;;5023157;28;20038;-67
2022/03/05 13:13:55;;;;;;;1.88;0.60;;;20.60;99.90;;;;;;5033479;28;20045;-67
2022/03/05 13:16:36;;;;;;;2.08;0.85;;;20.60;99.90;;;;;;5009237;28;20404;-67
2022/03/05 13:19:12;;;;;;;2.63;0.70;;;20.70;99.90;;;;;;5028398;28;20025;-67
2022/03/05 13:21:44;;;;;;;2.03;0.55;;;20.80;99.90;;;;;;5030556;28;20029;-68
2022/03/05 13:24:14;;;;;;;1.38;0.40;;;20.80;99.90;;;;;;5019277;28;20116;-67
2022/03/05 13:26:46;;;;;;;1.40;0.50;;;20.80;99.90;;;;;;5030207;28;20112;-68
2022/03/05 13:29:13;;;;;;;1.35;0.70;;;20.90;99.90;;;;;;5023906;28;20048;-67
2022/03/05 13:31:41;;;;;;;3.30;1.50;;;20.70;99.90;;;;;;5031187;28;20037;-67
2022/03/05 13:34:18;;;;;;;1.65;1.05;;;20.70;99.90;;;;;;5032674;28;20048;-67
2022/03/05 13:36:47;;;;;;;1.25;0.70;;;20.90;99.90;;;;;;5023207;28;20548;-67
2022/03/05 13:39:20;;;;;;;2.25;0.88;;;20.80;99.90;;;;;;5024164;28;20112;-67
2022/03/05 13:41:51;;;;;;;2.13;1.27;;;20.80;99.90;;;;;;5017822;28;20033;-67
2022/03/05 13:44:22;;;;;;;1.40;0.68;;;20.80;99.90;;;;;;5030169;28;20041;-67
2022/03/05 13:46:54;;;;;;;1.52;0.90;;;20.90;99.90;;;;;;5029229;28;20037;-67
2022/03/05 13:49:23;;;;;;;5.57;4.97;;;20.80;99.90;;;;;;5028787;28;20500;-67
2022/03/05 13:51:53;;;;;;;3.92;2.88;;;20.70;99.90;;;;;;5013825;28;20456;-67
2022/03/05 13:54:34;;;;;;;3.28;1.30;;;20.80;99.90;;;;;;5032766;28;20037;-67
2022/03/05 13:57:03;;;;;;;2.05;1.13;;;20.70;99.90;;;;;;5026656;28;20076;-67
2022/03/05 13:59:42;;;;;;;1.85;1.17;;;20.80;99.90;;;;;;5030182;28;20490;-67
2022/03/05 14:02:10;;;;;;;2.47;1.27;;;20.80;99.90;;;;;;5027586;28;20084;-67
2022/03/05 14:05:08;;;;;;;3.10;0.80;;;20.90;99.90;;;;;;5017555;28;20044;-67
2022/03/05 14:07:44;;;;;;;1.60;1.02;;;20.90;99.90;;;;;;5018599;28;20055;-67
2022/03/05 14:10:13;;;;;;;1.70;0.73;;;20.80;99.90;;;;;;5029252;28;20254;-67
2022/03/05 14:12:48;;;;;;;6.25;1.58;;;20.80;99.90;;;;;;5004693;28;20374;-67
2022/03/05 14:15:16;;;;;;;5.95;0.90;;;20.80;99.90;;;;;;5029076;28;20442;-67
2022/03/05 14:17:48;;;;;;;1.40;0.60;;;20.90;99.90;;;;;;5031736;28;20124;-67
2022/03/05 14:23:20;;;;;;;2.88;0.52;;;20.70;99.90;;;;;;5015476;28;20050;-67
2022/03/05 14:25:53;;;;;;;4.23;0.70;;;20.70;99.90;;;;;;4984404;28;20038;-67
2022/03/05 14:28:24;;;;;;;2.67;0.80;;;20.70;99.90;;;;;;5023413;28;20040;-67
2022/03/05 14:30:52;;;;;;;4.78;1.10;;;20.60;99.90;;;;;;5031760;28;20044;-67
2022/03/05 14:33:20;;;;;;;7.28;1.48;;;20.60;99.90;;;;;;5024051;28;20049;-67
2022/03/05 14:35:49;;;;;;;10.98;2.13;;;20.60;99.90;;;;;;5028473;28;20099;-67
2022/03/05 14:38:17;;;;;;;7.20;1.40;;;20.70;99.90;;;;;;5019848;28;20081;-67
2022/03/05 14:40:45;;;;;;;7.50;1.88;;;20.70;99.90;;;;;;5016070;28;20120;-67
2022/03/05 14:43:14;;;;;;;10.00;1.80;;;20.70;99.90;;;;;;5012259;28;20040;-67
2022/03/05 14:45:44;;;;;;;12.35;2.28;;;20.70;99.90;;;;;;5016958;28;20551;-67
2022/03/05 14:48:12;;;;;;;13.07;2.70;;;20.70;99.90;;;;;;5032082;28;20041;-67
2022/03/05 14:50:42;;;;;;;6.28;1.85;;;20.60;99.90;;;;;;5030904;28;20036;-67
2022/03/05 14:53:12;;;;;;;10.73;1.55;;;20.60;99.90;;;;;;5016071;28;20034;-68
2022/03/05 14:55:40;;;;;;;6.10;1.15;;;20.60;99.90;;;;;;5003920;28;20033;-67
2022/03/05 14:58:10;;;;;;;7.93;1.25;;;20.70;99.90;;;;;;5003217;28;20074;-67
2022/03/05 15:00:40;;;;;;;10.88;1.67;;;20.60;99.90;;;;;;5013784;28;20052;-67
2022/03/05 15:03:10;;;;;;;5.70;1.52;;;20.60;99.90;;;;;;5013857;28;20069;-67
2022/03/05 15:05:39;;;;;;;7.82;1.10;;;20.70;99.90;;;;;;5031415;28;20033;-67
2022/03/05 15:08:07;;;;;;;5.50;1.13;;;20.70;99.90;;;;;;5023921;28;20103;-67
2022/03/05 15:10:35;;;;;;;6.60;0.80;;;20.70;99.90;;;;;;5023108;28;20048;-67
2022/03/05 15:13:02;;;;;;;5.47;1.40;;;20.60;99.90;;;;;;5033892;28;20041;-67
2022/03/05 15:15:33;;;;;;;4.20;1.15;;;20.60;99.90;;;;;;5016992;28;20551;-67
2022/03/05 15:18:00;;;;;;;5.68;0.90;;;20.60;99.90;;;;;;5007541;28;20030;-68
2022/03/05 15:20:28;;;;;;;9.85;1.42;;;20.60;99.90;;;;;;5033202;28;20084;-67
2022/03/05 15:22:56;;;;;;;6.20;0.85;;;20.60;99.90;;;;;;5031221;28;20108;-67
2022/03/05 15:25:23;;;;;;;5.78;1.00;;;20.60;99.90;;;;;;5033778;28;20033;-67
2022/03/05 15:27:51;;;;;;;3.47;1.08;;;20.60;99.90;;;;;;5015942;28;20038;-68
2022/03/05 15:30:19;;;;;;;2.10;0.68;;;20.60;99.90;;;;;;5028355;28;20037;-67
2022/03/05 15:32:46;;;;;;;4.15;0.88;;;20.60;99.90;;;;;;5035215;28;20404;-67
2022/03/05 15:35:17;;;;;;;4.95;0.40;;;20.60;99.90;;;;;;5028380;28;20187;-68
2022/03/05 15:37:52;;;;;;;2.33;0.45;;;20.60;99.90;;;;;;4997964;28;20038;-69
2022/03/05 15:40:20;;;;;;;2.97;0.50;;;20.60;99.90;;;;;;5015986;28;20030;-66
2022/03/05 15:42:47;;;;;;;4.88;0.70;;;20.50;99.90;;;;;;5035198;28;20041;-66
2022/03/05 15:45:14;;;;;;;3.05;0.60;;;20.50;99.90;;;;;;5034158;28;20051;-68
2022/03/05 15:47:42;;;;;;;4.30;0.52;;;20.50;99.90;;;;;;5034839;28;20374;-67
2022/03/05 15:50:12;;;;;;;4.72;0.60;;;20.50;99.90;;;;;;5013961;28;20042;-67
2022/03/05 15:52:39;;;;;;;3.72;0.93;;;20.50;99.90;;;;;;5035010;28;20125;-67
2022/03/05 15:55:08;;;;;;;9.20;0.90;;;20.40;99.90;;;;;;5034719;28;20029;-67
2022/03/05 15:57:36;;;;;;;7.35;1.35;;;20.40;99.90;;;;;;5014266;28;20121;-67
2022/03/05 16:00:08;;;;;;;3.05;0.55;;;20.50;99.90;;;;;;5026133;28;20037;-67
2022/03/05 16:02:38;;;;;;;2.28;0.60;;;20.50;99.90;;;;;;5033737;28;20031;-67
2022/03/05 16:05:06;;;;;;;11.60;1.20;;;20.40;99.90;;;;;;5033756;28;20044;-67
2022/03/05 16:07:34;;;;;;;10.52;2.45;;;20.40;99.90;;;;;;5012502;28;20490;-67
2022/03/05 16:10:01;;;;;;;8.27;1.05;;;20.40;99.90;;;;;;5014852;28;20030;-67
2022/03/05 16:12:29;;;;;;;8.95;1.40;;;20.30;99.90;;;;;;5029219;28;20034;-67
2022/03/05 16:14:56;;;;;;;7.22;1.52;;;20.40;99.90;;;;;;5015469;28;20041;-67
2022/03/05 16:17:23;;;;;;;8.63;0.80;;;20.30;99.90;;;;;;5016817;28;20088;-67
2022/03/05 16:19:51;;;;;;;11.63;0.90;;;20.30;99.90;;;;;;5015854;28;20109;-67
2022/03/05 16:22:18;;;;;;;8.27;0.82;;;20.30;99.90;;;;;;5020402;28;20068;-67
2022/03/05 16:24:46;;;;;;;10.75;1.52;;;20.30;99.90;;;;;;5022071;28;20034;-67
2022/03/05 16:27:13;;;;;;;10.48;1.10;;;20.40;99.90;;;;;;5010027;28;20041;-67
2022/03/05 16:29:41;;;;;;;7.97;1.13;;;20.30;99.90;;;;;;5016315;28;20120;-67
2022/03/05 16:32:08;;;;;;;9.68;1.85;;;20.40;99.90;;;;;;4997294;28;20041;-67
2022/03/05 16:34:36;;;;;;;13.95;1.83;;;20.40;99.90;;;;;;5017254;28;20464;-67
2022/03/05 16:37:04;;;;;;;12.80;1.48;;;20.40;99.90;;;;;;5029733;28;20041;-67
2022/03/05 16:39:32;;;;;;;14.07;2.42;;;20.40;99.90;;;;;;5032303;28;20112;-68
2022/03/05 16:41:59;;;;;;;15.93;2.63;;;20.40;99.90;;;;;;5010972;28;20030;-68
2022/03/05 16:44:27;;;;;;;13.77;1.83;;;20.40;99.90;;;;;;5016458;28;20420;-68
2022/03/05 16:46:54;;;;;;;13.02;1.98;;;20.40;99.90;;;;;;5032685;28;20072;-68
2022/03/05 16:49:23;;;;;;;14.95;2.03;;;20.50;99.90;;;;;;5028797;28;20044;-68
2022/03/05 16:51:50;;;;;;;12.73;2.22;;;20.50;99.90;;;;;;5022835;28;20069;-68
2022/03/05 16:54:18;;;;;;;15.38;2.42;;;20.50;99.90;;;;;;5018701;28;20037;-68